Time;durP1;ratioP1;P1;durP2;ratioP2;P2;SDS_P1;SDS_P2;PMS_P1;PMS_P2;Temp;Humidity;BMP_temperature;BMP_pressure;BME280_temperature;BME280_humidity;BME280_pressure;Samples;Min_cycle;Max_cycle;Signal;HPM_P1;HPM_P2
2023/01/26 00:01:07;;;;;;;6.73;3.63;;;23.50;35.80;;;;;;5064505;27;81864;-54
2023/01/26 00:03:35;;;;;;;6.20;3.80;;;23.50;35.90;;;;;;5065405;27;82470;-54
2023/01/26 00:06:04;;;;;;;7.20;4.97;;;23.50;36.50;;;;;;5064100;27;82213;-54
2023/01/26 00:08:36;;;;;;;9.67;4.43;;;23.40;35.90;;;;;;5064266;27;82802;-54
2023/01/26 00:11:04;;;;;;;8.23;3.90;;;23.30;35.90;;;;;;5064935;27;82885;-54
2023/01/26 00:13:32;;;;;;;4.30;2.90;;;23.30;35.90;;;;;;5063737;27;82455;-54
2023/01/26 00:16:02;;;;;;;7.03;3.90;;;23.30;36.00;;;;;;5064060;27;82915;-54
2023/01/26 00:18:30;;;;;;;6.37;2.83;;;23.20;35.90;;;;;;5064587;27;82826;-54
2023/01/26 00:20:58;;;;;;;8.70;4.23;;;23.20;36.00;;;;;;5061782;27;84234;-54
2023/01/26 00:23:26;;;;;;;6.70;4.00;;;23.20;36.00;;;;;;5064073;27;81916;-54
2023/01/26 00:25:54;;;;;;;6.17;3.43;;;23.10;36.00;;;;;;5065191;27;81922;-54
2023/01/26 00:28:22;;;;;;;7.63;3.83;;;23.10;36.10;;;;;;5064521;27;83983;-54
2023/01/26 00:30:50;;;;;;;5.67;3.30;;;23.10;36.10;;;;;;5064714;27;81901;-54
2023/01/26 00:33:20;;;;;;;4.83;3.13;;;23.00;36.00;;;;;;5065642;27;83871;-54
2023/01/26 00:35:54;;;;;;;4.63;3.00;;;23.00;36.00;;;;;;5062533;27;82719;-54
2023/01/26 00:38:22;;;;;;;4.97;3.20;;;23.00;36.10;;;;;;5063029;27;81959;-54
2023/01/26 00:40:50;;;;;;;6.47;3.87;;;22.90;36.70;;;;;;5063697;27;85026;-54
2023/01/26 00:43:18;;;;;;;6.90;4.20;;;22.90;36.10;;;;;;5057955;27;84868;-53
2023/01/26 00:45:46;;;;;;;6.27;3.47;;;22.90;36.10;;;;;;5064126;27;82001;-54
2023/01/26 00:48:14;;;;;;;5.80;3.47;;;22.90;36.10;;;;;;5062407;27;83532;-54
2023/01/26 00:50:43;;;;;;;5.33;3.07;;;22.80;36.10;;;;;;5064148;27;82887;-54
2023/01/26 00:53:11;;;;;;;6.87;3.37;;;22.80;36.10;;;;;;5063652;27;82849;-54
2023/01/26 00:55:39;;;;;;;6.53;3.20;;;22.80;36.10;;;;;;5064083;27;82037;-54
2023/01/26 00:58:08;;;;;;;7.73;4.27;;;22.70;36.10;;;;;;5064998;27;82943;-54
2023/01/26 01:00:36;;;;;;;7.13;3.80;;;22.70;36.10;;;;;;5063943;27;83035;-53
2023/01/26 01:03:05;;;;;;;4.27;2.87;;;22.70;36.20;;;;;;5063485;27;82594;-54
2023/01/26 01:05:33;;;;;;;6.33;3.57;;;22.70;36.20;;;;;;5062384;27;83002;-54
2023/01/26 01:08:02;;;;;;;5.97;2.70;;;22.70;36.20;;;;;;5062369;27;82683;-54
2023/01/26 01:10:30;;;;;;;6.20;3.57;;;22.60;36.10;;;;;;5057523;27;83792;-54
2023/01/26 01:12:58;;;;;;;3.73;2.37;;;22.60;36.20;;;;;;5062137;27;83022;-55
2023/01/26 01:15:26;;;;;;;4.47;3.13;;;22.60;36.20;;;;;;5058043;27;82528;-54
2023/01/26 01:17:55;;;;;;;3.20;2.23;;;22.50;36.10;;;;;;5061042;27;82772;-54
2023/01/26 01:20:22;;;;;;;7.20;3.27;;;22.50;36.20;;;;;;5063098;27;84925;-55
2023/01/26 01:22:51;;;;;;;5.70;3.03;;;22.50;36.20;;;;;;5063966;27;83764;-54
2023/01/26 01:25:21;;;;;;;6.97;3.37;;;22.50;36.20;;;;;;5063166;27;82402;-54
2023/01/26 01:27:49;;;;;;;4.53;3.03;;;22.40;36.20;;;;;;5062580;27;82952;-55
2023/01/26 01:30:17;;;;;;;6.10;2.73;;;22.40;36.20;;;;;;5057993;27;84105;-54
2023/01/26 01:32:48;;;;;;;6.90;3.17;;;22.40;36.20;;;;;;5062663;27;83796;-55
2023/01/26 01:35:16;;;;;;;5.07;2.60;;;22.40;36.30;;;;;;5063967;27;82033;-54
2023/01/26 01:37:44;;;;;;;5.80;3.77;;;22.40;36.40;;;;;;5064169;27;83843;-54
2023/01/26 01:40:13;;;;;;;5.30;3.30;;;22.30;36.40;;;;;;5062879;27;82891;-55
2023/01/26 01:42:48;;;;;;;4.63;2.70;;;22.30;36.40;;;;;;5063082;27;82751;-54
2023/01/26 01:45:41;;;;;;;5.50;2.97;;;22.30;36.40;;;;;;5063341;27;82319;-54
2023/01/26 01:48:13;;;;;;;7.70;3.63;;;22.20;36.40;;;;;;5063655;27;83065;-53
2023/01/26 01:50:41;;;;;;;4.53;3.07;;;22.20;36.40;;;;;;5062895;27;82956;-54
2023/01/26 01:53:10;;;;;;;6.53;3.50;;;22.20;36.50;;;;;;5061757;27;83491;-55
2023/01/26 01:55:38;;;;;;;5.63;2.33;;;22.20;36.50;;;;;;5062066;27;83622;-55
2023/01/26 01:58:08;;;;;;;6.80;3.27;;;22.20;36.50;;;;;;5061892;27;83799;-55
2023/01/26 02:00:36;;;;;;;5.73;2.63;;;22.20;36.60;;;;;;5062014;27;84006;-54
2023/01/26 02:03:13;;;;;;;6.17;3.10;;;22.10;36.50;;;;;;5061685;27;83728;-54
2023/01/26 02:05:47;;;;;;;6.40;2.53;;;22.10;36.50;;;;;;5063468;27;82192;-54
2023/01/26 02:08:16;;;;;;;5.73;3.20;;;22.10;36.60;;;;;;5063057;27;83050;-55
2023/01/26 02:10:43;;;;;;;3.67;2.80;;;22.10;36.60;;;;;;5062332;27;82795;-55
2023/01/26 02:13:12;;;;;;;6.03;3.77;;;22.10;36.60;;;;;;5062622;27;82798;-55
2023/01/26 02:15:40;;;;;;;6.37;2.63;;;22.00;36.60;;;;;;5062883;27;82072;-54
2023/01/26 02:18:10;;;;;;;4.97;3.07;;;22.00;36.60;;;;;;5062112;27;83453;-55
2023/01/26 02:20:43;;;;;;;4.90;2.90;;;22.00;37.30;;;;;;5061803;27;83139;-54
2023/01/26 02:23:25;;;;;;;5.83;3.40;;;22.00;36.70;;;;;;5062274;27;83906;-55
2023/01/26 02:26:11;;;;;;;5.57;3.10;;;21.90;37.20;;;;;;5062001;27;82310;-54
2023/01/26 02:28:39;;;;;;;5.87;3.20;;;21.90;36.60;;;;;;5062506;27;82524;-55
2023/01/26 02:31:07;;;;;;;4.10;2.40;;;21.90;36.60;;;;;;5061842;27;83062;-54
2023/01/26 02:33:36;;;;;;;3.40;2.27;;;21.90;36.60;;;;;;5061900;27;83977;-55
2023/01/26 02:36:04;;;;;;;4.93;3.10;;;21.90;36.60;;;;;;5062443;27;81860;-54
2023/01/26 02:38:37;;;;;;;5.47;3.20;;;21.90;36.70;;;;;;5062771;27;82819;-54
2023/01/26 02:41:06;;;;;;;4.73;2.07;;;21.80;36.60;;;;;;5062869;27;82903;-55
2023/01/26 02:43:35;;;;;;;3.90;2.70;;;21.80;36.60;;;;;;5061486;27;83782;-54
2023/01/26 02:46:03;;;;;;;4.27;3.30;;;21.80;36.70;;;;;;5061028;27;84316;-54
2023/01/26 02:51:16;;;;;;;5.50;2.77;;;21.70;36.60;;;;;;5047820;27;81943;-55
2023/01/26 02:53:44;;;;;;;3.40;2.77;;;21.70;36.60;;;;;;5062321;27;82958;-54
2023/01/26 02:56:11;;;;;;;4.23;2.43;;;21.70;36.60;;;;;;5061428;27;82287;-54
2023/01/26 02:58:41;;;;;;;5.87;2.63;;;21.70;36.60;;;;;;5061549;27;84018;-54
2023/01/26 03:01:09;;;;;;;5.30;2.50;;;21.70;36.70;;;;;;5062097;27;82933;-54
2023/01/26 03:03:44;;;;;;;4.07;2.53;;;21.70;36.70;;;;;;5055519;27;82431;-55
2023/01/26 03:06:12;;;;;;;4.27;2.37;;;21.70;36.70;;;;;;5055537;27;81995;-56
2023/01/26 03:08:40;;;;;;;5.53;3.17;;;21.60;36.60;;;;;;5061474;27;82724;-54
2023/01/26 03:11:09;;;;;;;5.67;3.00;;;21.60;36.60;;;;;;5044616;27;82960;-55
2023/01/26 03:13:37;;;;;;;3.73;2.73;;;21.60;36.70;;;;;;5060194;27;83565;-55
2023/01/26 03:16:10;;;;;;;2.77;2.50;;;21.60;36.70;;;;;;5066120;27;82042;-55
2023/01/26 03:29:41;;;;;;;6.13;2.93;;;21.50;37.40;;;;;;5065405;27;84462;-54
2023/01/26 03:32:10;;;;;;;3.30;2.53;;;21.50;36.80;;;;;;5063470;27;84007;-55
2023/01/26 03:34:38;;;;;;;3.27;2.57;;;21.40;36.70;;;;;;5064703;27;81988;-57
2023/01/26 03:37:06;;;;;;;4.80;2.60;;;21.50;36.80;;;;;;5063410;27;82989;-54
2023/01/26 03:56:20;;;;;;;5.37;2.37;;;21.30;36.70;;;;;;5064911;27;82869;-56
2023/01/26 03:58:50;;;;;;;3.73;2.70;;;21.30;36.70;;;;;;5065459;27;82017;-57
2023/01/26 04:01:20;;;;;;;3.43;2.17;;;21.30;36.80;;;;;;5064192;27;82862;-55
2023/01/26 04:09:21;;;;;;;2.47;1.80;;;21.30;36.90;;;;;;5064296;27;82038;-54
2023/01/26 04:11:50;;;;;;;3.70;2.67;;;21.20;36.80;;;;;;5063548;27;83191;-54
2023/01/26 04:22:50;;;;;;;3.93;2.17;;;21.20;36.80;;;;;;5064567;27;82800;-56
2023/01/26 04:25:19;;;;;;;2.67;2.00;;;21.20;36.90;;;;;;5062474;27;83088;-57
2023/01/26 04:27:47;;;;;;;3.73;2.20;;;21.20;36.90;;;;;;5061438;27;82660;-54
2023/01/26 04:30:16;;;;;;;4.33;2.03;;;21.10;36.80;;;;;;5063584;27;83158;-55
2023/01/26 04:32:45;;;;;;;3.83;2.00;;;21.10;36.90;;;;;;5063059;27;82651;-57
2023/01/26 04:35:15;;;;;;;4.23;2.13;;;21.10;36.80;;;;;;5063538;27;83843;-55
2023/01/26 04:37:42;;;;;;;2.20;1.63;;;21.10;36.90;;;;;;5063311;27;83114;-57
2023/01/26 04:40:11;;;;;;;1.80;1.63;;;21.10;36.90;;;;;;5063370;27;82254;-53
2023/01/26 04:42:40;;;;;;;5.60;2.20;;;21.10;37.00;;;;;;5063850;27;83768;-56
2023/01/26 04:45:10;;;;;;;3.67;2.23;;;21.10;37.00;;;;;;5061077;27;83229;-54
2023/01/26 04:47:38;;;;;;;2.93;2.07;;;21.10;37.10;;;;;;5060203;27;82966;-53
2023/01/26 04:50:07;;;;;;;4.77;2.90;;;21.10;37.20;;;;;;5063710;27;82091;-53
2023/01/26 04:52:36;;;;;;;4.00;1.93;;;21.10;37.20;;;;;;5063265;27;83046;-53
2023/01/26 04:55:05;;;;;;;1.33;1.23;;;21.10;37.30;;;;;;5063017;27;84170;-53
2023/01/26 04:57:33;;;;;;;3.40;1.80;;;21.20;37.50;;;;;;5063579;27;85174;-53
2023/01/26 05:00:01;;;;;;;2.53;1.97;;;21.20;37.50;;;;;;5060411;27;82029;-52
2023/01/26 05:02:29;;;;;;;2.50;2.03;;;21.30;37.50;;;;;;5062767;27;83518;-53
2023/01/26 05:04:57;;;;;;;2.97;1.73;;;21.40;37.60;;;;;;5062670;27;83328;-54
2023/01/26 05:07:25;;;;;;;3.00;1.80;;;21.60;37.70;;;;;;5063947;27;84028;-53
2023/01/26 05:09:55;;;;;;;1.97;1.63;;;21.80;37.70;;;;;;5063750;27;84524;-51
2023/01/26 05:12:37;;;;;;;3.10;2.03;;;21.90;37.60;;;;;;5064247;27;81789;-53
2023/01/26 05:15:05;;;;;;;5.23;2.47;;;22.10;37.60;;;;;;5062580;27;82931;-53
2023/01/26 05:17:34;;;;;;;2.63;1.83;;;22.40;37.60;;;;;;5062596;27;82897;-53
2023/01/26 05:20:03;;;;;;;4.27;2.10;;;22.60;37.60;;;;;;5058705;27;83079;-53
2023/01/26 05:22:31;;;;;;;3.33;1.73;;;22.80;37.50;;;;;;5060590;27;82499;-53
2023/01/26 05:25:00;;;;;;;4.33;1.90;;;23.00;37.50;;;;;;5062907;27;82911;-53
2023/01/26 05:27:28;;;;;;;2.67;1.57;;;23.10;37.50;;;;;;5052180;27;83842;-53
2023/01/26 05:29:59;;;;;;;3.70;2.50;;;23.20;38.20;;;;;;5063170;27;81995;-53
2023/01/26 05:32:27;;;;;;;1.87;1.50;;;23.30;37.50;;;;;;5062466;27;82805;-53
2023/01/26 05:34:55;;;;;;;2.67;2.00;;;23.30;37.50;;;;;;5063198;27;84117;-53
2023/01/26 05:37:24;;;;;;;2.43;1.70;;;23.30;37.50;;;;;;5064039;27;84042;-54
2023/01/26 05:39:52;;;;;;;2.27;1.40;;;23.30;37.60;;;;;;5063367;27;82089;-52
2023/01/26 05:42:21;;;;;;;1.77;1.50;;;23.30;37.60;;;;;;5063294;27;82788;-53
2023/01/26 05:44:49;;;;;;;2.77;2.17;;;23.30;37.80;;;;;;5062822;27;84024;-53
2023/01/26 05:47:17;;;;;;;2.80;1.90;;;23.20;37.70;;;;;;5063236;27;83547;-52
2023/01/26 05:49:45;;;;;;;1.60;1.10;;;23.20;37.80;;;;;;5063745;27;81922;-53
2023/01/26 05:52:15;;;;;;;3.00;1.40;;;23.10;37.90;;;;;;5063555;27;82637;-53
2023/01/26 05:54:43;;;;;;;4.23;2.00;;;23.10;37.90;;;;;;5063093;27;83078;-54
2023/01/26 05:57:11;;;;;;;2.03;1.53;;;23.00;37.90;;;;;;5063425;27;82683;-53
2023/01/26 05:59:41;;;;;;;2.93;1.60;;;23.00;38.00;;;;;;5062877;27;81882;-52
2023/01/26 06:02:09;;;;;;;2.73;1.93;;;22.90;38.00;;;;;;5063394;27;82832;-54
2023/01/26 06:04:37;;;;;;;2.20;2.00;;;22.90;38.10;;;;;;5063743;27;83204;-52
2023/01/26 06:07:05;;;;;;;2.40;2.10;;;22.80;38.10;;;;;;5063532;27;84049;-53
2023/01/26 06:09:33;;;;;;;2.67;2.00;;;22.80;38.20;;;;;;5062882;27;83221;-51
2023/01/26 06:12:01;;;;;;;2.83;1.70;;;22.80;38.30;;;;;;5062711;27;82700;-53
2023/01/26 06:14:29;;;;;;;2.33;1.30;;;22.70;38.30;;;;;;5062765;27;84156;-53
2023/01/26 06:16:58;;;;;;;2.47;1.57;;;22.70;38.30;;;;;;5063613;27;83899;-53
2023/01/26 06:19:26;;;;;;;2.50;1.40;;;22.70;38.50;;;;;;5063057;27;81997;-53
2023/01/26 06:21:54;;;;;;;3.00;1.70;;;22.60;38.50;;;;;;5063253;27;82654;-53
2023/01/26 06:24:22;;;;;;;2.77;1.83;;;22.60;38.60;;;;;;5063008;27;83153;-52
2023/01/26 06:26:51;;;;;;;2.80;1.67;;;22.50;38.70;;;;;;5063652;27;82772;-52
2023/01/26 06:29:18;;;;;;;2.90;1.90;;;22.50;38.80;;;;;;5062711;27;81991;-54
2023/01/26 06:31:47;;;;;;;2.23;1.63;;;22.40;38.80;;;;;;5062368;27;84099;-54
2023/01/26 06:34:16;;;;;;;2.97;1.70;;;22.40;38.90;;;;;;5063551;27;83769;-55
2023/01/26 06:36:44;;;;;;;1.87;1.53;;;22.40;39.00;;;;;;5063122;27;82488;-54
2023/01/26 06:39:12;;;;;;;2.60;1.80;;;22.30;39.00;;;;;;5062706;27;82034;-54
2023/01/26 06:41:42;;;;;;;2.03;1.57;;;22.30;39.10;;;;;;5062563;27;82825;-54
2023/01/26 06:44:11;;;;;;;1.77;1.47;;;22.30;39.20;;;;;;5064964;27;84012;-54
2023/01/26 06:46:39;;;;;;;1.60;1.30;;;22.20;39.20;;;;;;5067178;27;82712;-52
2023/01/26 06:49:08;;;;;;;2.93;1.67;;;22.20;39.30;;;;;;5066818;27;81967;-54
2023/01/26 06:51:44;;;;;;;2.17;1.93;;;22.20;39.40;;;;;;5066547;27;81606;-54
2023/01/26 06:54:13;;;;;;;3.53;1.90;;;22.10;39.40;;;;;;5065469;27;83000;-53
2023/01/26 06:56:41;;;;;;;1.93;1.20;;;22.10;39.40;;;;;;5066136;27;82961;-52
2023/01/26 06:59:09;;;;;;;2.47;1.50;;;22.10;39.50;;;;;;5065972;27;82886;-54
2023/01/26 07:01:39;;;;;;;3.07;1.93;;;22.10;39.60;;;;;;5065751;27;83987;-53
2023/01/26 07:04:07;;;;;;;1.77;1.60;;;22.10;39.70;;;;;;5066111;27;83905;-54
2023/01/26 07:06:35;;;;;;;5.53;2.17;;;22.10;39.70;;;;;;5065276;27;82554;-54
2023/01/26 07:09:04;;;;;;;2.00;1.50;;;22.00;39.60;;;;;;5065580;27;82031;-53
2023/01/26 07:11:32;;;;;;;2.77;1.67;;;22.00;39.70;;;;;;5065524;27;82001;-53
2023/01/26 07:14:00;;;;;;;4.43;2.07;;;22.00;39.70;;;;;;5065143;27;83161;-53
2023/01/26 07:16:28;;;;;;;7.27;2.40;;;22.10;39.70;;;;;;5049739;27;81921;-54
2023/01/26 07:19:00;;;;;;;4.23;2.67;;;22.00;39.60;;;;;;5066098;27;82210;-54
2023/01/26 07:21:28;;;;;;;7.43;3.90;;;22.10;39.80;;;;;;5065201;27;82956;-53
2023/01/26 07:23:56;;;;;;;7.73;3.80;;;22.10;40.50;;;;;;5064703;27;84329;-53
2023/01/26 07:26:26;;;;;;;13.30;4.00;;;22.10;39.90;;;;;;5065323;27;84578;-54
2023/01/26 07:28:54;;;;;;;13.23;5.43;;;22.10;40.00;;;;;;5065619;27;81997;-53
2023/01/26 07:31:22;;;;;;;12.23;5.67;;;22.10;40.20;;;;;;5064122;27;83402;-55
2023/01/26 07:33:50;;;;;;;18.40;5.80;;;22.20;40.40;;;;;;5065526;27;83126;-56
2023/01/26 07:36:18;;;;;;;10.47;5.97;;;22.20;40.50;;;;;;5065459;27;82077;-55
2023/01/26 07:38:47;;;;;;;12.77;4.93;;;22.20;40.50;;;;;;5064468;27;82167;-54
2023/01/26 07:41:15;;;;;;;11.67;5.13;;;22.20;40.50;;;;;;5066167;27;83146;-55
2023/01/26 07:43:44;;;;;;;9.77;4.83;;;22.20;40.60;;;;;;5065505;27;84369;-55
2023/01/26 07:46:12;;;;;;;9.13;4.40;;;22.20;40.70;;;;;;5065413;27;82794;-54
2023/01/26 07:48:40;;;;;;;9.47;5.53;;;22.20;40.80;;;;;;5064817;27;82941;-55
2023/01/26 07:51:09;;;;;;;11.23;5.23;;;22.10;40.80;;;;;;5064618;27;82859;-52
2023/01/26 07:53:39;;;;;;;10.50;4.47;;;22.20;40.90;;;;;;5064692;27;84095;-54
2023/01/26 07:56:08;;;;;;;9.47;3.50;;;22.10;40.90;;;;;;5063681;27;82868;-54
2023/01/26 07:58:36;;;;;;;7.73;3.97;;;22.10;40.90;;;;;;5064758;27;82056;-55
2023/01/26 08:01:07;;;;;;;6.10;3.13;;;22.10;40.90;;;;;;5064444;27;82937;-55
2023/01/26 08:03:35;;;;;;;5.53;3.40;;;22.00;40.80;;;;;;5063308;27;88200;-55
2023/01/26 08:06:04;;;;;;;8.57;3.27;;;22.00;40.90;;;;;;5062091;27;89027;-54
2023/01/26 08:08:32;;;;;;;5.77;3.17;;;22.00;41.00;;;;;;5062227;27;87593;-54
2023/01/26 08:11:00;;;;;;;6.53;3.03;;;21.90;40.90;;;;;;5061347;27;87171;-54
2023/01/26 08:13:29;;;;;;;4.50;3.40;;;21.90;40.90;;;;;;5061558;27;89040;-55
2023/01/26 08:16:03;;;;;;;6.60;2.80;;;21.90;40.90;;;;;;5061104;27;88959;-56
2023/01/26 08:18:32;;;;;;;3.80;2.70;;;21.90;40.90;;;;;;5061878;27;87324;-55
2023/01/26 08:21:00;;;;;;;3.57;2.93;;;21.80;40.80;;;;;;5061916;27;87086;-54
2023/01/26 08:23:29;;;;;;;4.63;3.17;;;21.80;40.80;;;;;;5061996;27;88122;-55
2023/01/26 08:26:00;;;;;;;6.40;2.43;;;21.80;40.80;;;;;;5061279;27;87935;-55
2023/01/26 08:28:29;;;;;;;3.87;2.50;;;21.70;40.80;;;;;;5061237;27;87032;-55
2023/01/26 08:30:59;;;;;;;7.57;2.13;;;21.80;40.80;;;;;;5059408;27;86968;-58
2023/01/26 08:33:28;;;;;;;3.07;2.00;;;21.70;40.70;;;;;;5059014;27;88152;-57
2023/01/26 08:36:01;;;;;;;7.20;2.47;;;21.70;40.60;;;;;;5062181;27;87827;-57
2023/01/26 08:38:30;;;;;;;6.80;3.13;;;21.60;40.50;;;;;;5061246;27;88014;-57
2023/01/26 08:40:58;;;;;;;10.40;2.43;;;21.70;40.60;;;;;;5062034;27;86989;-57
2023/01/26 08:43:26;;;;;;;2.77;1.90;;;21.60;40.50;;;;;;5061787;27;88307;-56
2023/01/26 08:45:54;;;;;;;2.17;1.73;;;21.60;40.50;;;;;;5061171;27;87792;-56
2023/01/26 08:48:22;;;;;;;5.57;1.33;;;21.60;40.40;;;;;;5061644;27;87106;-57
2023/01/26 08:50:53;;;;;;;3.03;1.93;;;21.60;40.40;;;;;;5061947;27;87054;-57
2023/01/26 08:53:23;;;;;;;5.53;2.00;;;21.50;40.30;;;;;;5061499;27;89224;-57
2023/01/26 08:55:51;;;;;;;2.57;1.57;;;21.50;40.30;;;;;;5062147;27;87859;-57
2023/01/26 08:58:20;;;;;;;3.37;2.10;;;21.50;40.30;;;;;;5061864;27;87094;-57
2023/01/26 09:00:48;;;;;;;4.37;1.30;;;21.50;40.30;;;;;;5061630;27;87090;-57
2023/01/26 09:03:16;;;;;;;4.20;1.40;;;21.50;40.30;;;;;;5060908;27;88827;-57
2023/01/26 09:05:44;;;;;;;2.47;1.50;;;21.50;40.20;;;;;;5061601;27;89632;-57
2023/01/26 09:08:12;;;;;;;2.10;1.30;;;21.50;40.20;;;;;;5061471;27;87101;-57
2023/01/26 09:10:43;;;;;;;7.07;1.37;;;21.40;40.20;;;;;;5060754;27;87081;-56
2023/01/26 09:13:12;;;;;;;4.40;1.73;;;21.40;40.10;;;;;;5058057;27;87995;-57
2023/01/26 09:15:40;;;;;;;3.93;2.23;;;21.40;40.70;;;;;;5061170;27;87834;-57
2023/01/26 09:18:08;;;;;;;3.40;1.87;;;21.40;40.10;;;;;;5062011;27;86962;-57
2023/01/26 09:20:37;;;;;;;7.60;1.77;;;21.40;40.10;;;;;;5061796;27;86311;-57
2023/01/26 09:23:05;;;;;;;1.33;1.03;;;21.40;40.10;;;;;;5055472;27;88301;-57
2023/01/26 09:25:35;;;;;;;2.10;1.33;;;21.40;40.10;;;;;;5060409;27;87059;-57
2023/01/26 09:28:05;;;;;;;2.50;1.50;;;21.30;40.00;;;;;;5060498;27;88055;-57
2023/01/26 09:30:33;;;;;;;1.90;1.60;;;21.30;40.00;;;;;;5058851;27;87111;-56
2023/01/26 09:33:02;;;;;;;3.00;1.30;;;21.30;39.90;;;;;;5059245;27;87836;-57
2023/01/26 09:35:30;;;;;;;1.80;1.33;;;21.30;39.90;;;;;;5057398;27;87844;-57
2023/01/26 09:37:58;;;;;;;1.50;1.17;;;21.30;39.90;;;;;;5060239;27;87107;-57
2023/01/26 09:40:32;;;;;;;2.03;0.87;;;21.30;39.90;;;;;;5058453;27;87108;-56
2023/01/26 09:43:07;;;;;;;2.17;1.37;;;21.20;39.90;;;;;;5061016;27;88236;-57
2023/01/26 09:45:38;;;;;;;2.00;0.90;;;21.20;39.90;;;;;;5061651;27;87962;-57
2023/01/26 09:48:14;;;;;;;1.07;0.97;;;21.20;39.90;;;;;;5061102;27;87678;-55
2023/01/26 09:50:45;;;;;;;3.20;1.80;;;21.20;39.90;;;;;;5061411;27;87077;-57
2023/01/26 09:53:16;;;;;;;1.27;0.90;;;21.20;39.90;;;;;;5060435;27;90113;-57
2023/01/26 09:55:44;;;;;;;1.17;1.07;;;21.20;39.90;;;;;;5060202;27;88703;-57
2023/01/26 09:58:15;;;;;;;0.97;0.80;;;21.20;39.90;;;;;;5060974;27;87027;-57
2023/01/26 10:00:45;;;;;;;1.07;0.70;;;21.20;40.00;;;;;;5060890;27;86971;-57
2023/01/26 10:03:18;;;;;;;2.40;1.07;;;21.20;39.90;;;;;;5060780;27;86916;-57
2023/01/26 10:05:47;;;;;;;1.37;0.80;;;21.10;40.50;;;;;;5060149;27;87545;-56
2023/01/26 10:08:18;;;;;;;3.00;1.30;;;21.10;39.80;;;;;;5059270;27;86891;-57
2023/01/26 10:10:48;;;;;;;1.83;0.77;;;21.10;39.80;;;;;;5060957;27;86264;-57
2023/01/26 10:13:18;;;;;;;2.43;1.00;;;21.10;39.90;;;;;;5061055;27;88103;-57
2023/01/26 10:15:48;;;;;;;3.33;0.90;;;21.10;39.90;;;;;;5060948;27;88576;-57
2023/01/26 10:18:18;;;;;;;4.00;0.77;;;21.10;39.90;;;;;;5059056;27;88061;-57
2023/01/26 10:20:48;;;;;;;1.80;0.97;;;21.10;39.90;;;;;;5060859;27;87082;-57
2023/01/26 10:23:17;;;;;;;1.87;0.80;;;21.10;39.90;;;;;;5061005;27;87028;-57
2023/01/26 10:25:46;;;;;;;3.40;1.50;;;21.10;39.90;;;;;;5060127;27;88911;-56
2023/01/26 10:28:14;;;;;;;0.93;0.70;;;21.10;39.90;;;;;;5061057;27;87181;-58
2023/01/26 10:30:45;;;;;;;1.97;0.90;;;21.00;39.80;;;;;;5060251;27;87086;-57
2023/01/26 10:33:16;;;;;;;1.93;0.80;;;21.00;39.70;;;;;;5060784;27;87994;-58
2023/01/26 10:35:44;;;;;;;1.67;0.57;;;21.00;39.70;;;;;;5060577;27;87753;-58
2023/01/26 10:38:28;;;;;;;3.73;0.53;;;21.00;39.70;;;;;;5061116;27;86939;-57
2023/01/26 10:40:57;;;;;;;1.33;0.70;;;20.90;39.70;;;;;;5060090;27;87786;-58
2023/01/26 10:43:25;;;;;;;5.43;1.13;;;20.90;39.70;;;;;;5059819;27;89369;-58
2023/01/26 10:45:55;;;;;;;1.57;0.50;;;20.90;39.70;;;;;;5060434;27;87382;-57
2023/01/26 10:48:25;;;;;;;2.20;0.80;;;20.90;39.70;;;;;;5060859;27;87069;-57
2023/01/26 10:50:54;;;;;;;4.00;0.90;;;20.90;39.70;;;;;;5060461;27;87076;-57
2023/01/26 10:53:23;;;;;;;1.73;0.70;;;20.80;39.60;;;;;;5060103;27;89176;-57
2023/01/26 10:55:59;;;;;;;2.73;1.10;;;20.80;39.60;;;;;;5060110;27;87510;-57
2023/01/26 10:58:42;;;;;;;2.27;1.10;;;20.80;39.60;;;;;;5060797;27;87074;-57
2023/01/26 11:01:13;;;;;;;1.70;0.80;;;20.80;39.60;;;;;;5060706;27;86181;-57
2023/01/26 11:03:41;;;;;;;1.07;0.67;;;20.80;39.60;;;;;;5059685;27;87985;-55
2023/01/26 11:06:14;;;;;;;5.67;0.73;;;20.80;39.60;;;;;;5059445;27;87063;-58
2023/01/26 11:08:42;;;;;;;1.23;0.80;;;20.70;39.60;;;;;;5059433;27;87980;-57
2023/01/26 11:11:25;;;;;;;1.10;0.60;;;20.80;39.60;;;;;;5060162;27;86983;-57
2023/01/26 11:14:12;;;;;;;2.73;0.90;;;20.70;39.60;;;;;;5059023;27;89110;-57
2023/01/26 11:16:43;;;;;;;6.57;0.70;;;20.70;39.60;;;;;;5059282;27;91818;-57
2023/01/26 11:19:13;;;;;;;2.10;1.00;;;20.70;39.50;;;;;;5060378;27;87042;-57
2023/01/26 11:21:42;;;;;;;2.73;0.87;;;20.70;39.50;;;;;;5058273;27;87284;-57
2023/01/26 11:24:12;;;;;;;1.53;0.30;;;20.70;39.50;;;;;;5058046;27;88997;-57
2023/01/26 11:27:08;;;;;;;5.50;0.85;;;20.70;39.50;;;;;;5059025;27;87752;-52
2023/01/26 11:29:50;;;;;;;0.97;0.80;;;20.70;39.60;;;;;;5059441;27;87066;-54
2023/01/26 11:32:22;;;;;;;2.03;0.30;;;20.80;39.20;;;;;;5062683;27;86909;-53
2023/01/26 11:34:56;;;;;;;4.00;0.80;;;20.70;39.00;;;;;;5062755;27;89059;-53
2023/01/26 11:37:45;;;;;;;2.53;0.80;;;20.60;39.00;;;;;;5062758;27;89539;-53
2023/01/26 11:40:26;;;;;;;0.70;0.33;;;20.50;39.00;;;;;;5063029;27;87004;-56
2023/01/26 11:43:19;;;;;;;2.57;0.73;;;20.40;38.90;;;;;;5062779;27;87028;-56
2023/01/26 11:46:11;;;;;;;1.30;0.60;;;20.40;39.10;;;;;;5057335;27;87988;-57
2023/01/26 11:48:46;;;;;;;1.23;1.03;;;20.30;39.10;;;;;;5061959;27;87796;-55
2023/01/26 11:51:18;;;;;;;2.67;0.80;;;20.20;39.20;;;;;;5062921;27;87592;-54
2023/01/26 11:54:05;;;;;;;1.83;0.57;;;20.10;39.20;;;;;;5062143;27;86397;-56
2023/01/26 11:56:39;;;;;;;0.40;0.40;;;20.00;39.30;;;;;;5062348;27;88034;-56
2023/01/26 11:59:10;;;;;;;2.30;0.80;;;20.00;39.30;;;;;;5050550;27;87074;-55
2023/01/26 12:01:40;;;;;;;2.20;0.80;;;20.00;39.30;;;;;;5063149;27;88107;-55
2023/01/26 12:04:12;;;;;;;2.43;0.60;;;19.90;39.30;;;;;;5062891;27;87206;-56
2023/01/26 12:06:40;;;;;;;1.60;0.50;;;20.00;39.50;;;;;;5062401;27;87960;-55
2023/01/26 12:09:17;;;;;;;4.17;0.77;;;20.00;39.50;;;;;;5062212;27;89226;-55
2023/01/26 12:11:48;;;;;;;2.03;0.80;;;20.00;39.50;;;;;;5062511;27;86943;-56
2023/01/26 12:14:21;;;;;;;0.90;0.40;;;20.00;39.60;;;;;;5063198;27;87053;-55
2023/01/26 12:17:16;;;;;;;6.27;2.23;;;20.00;39.60;;;;;;5062162;27;88338;-54
2023/01/26 12:19:51;;;;;;;6.67;2.43;;;20.00;39.60;;;;;;5046794;27;87727;-55
2023/01/26 12:22:21;;;;;;;2.00;1.60;;;20.00;39.60;;;;;;5061231;27;87004;-56
2023/01/26 12:24:51;;;;;;;0.90;0.83;;;20.00;39.60;;;;;;5061420;27;86958;-53
2023/01/26 12:27:42;;;;;;;4.97;0.93;;;20.00;39.70;;;;;;5061116;27;88618;-55
2023/01/26 12:30:29;;;;;;;6.03;1.30;;;20.00;39.70;;;;;;5061915;27;88969;-54
2023/01/26 12:32:58;;;;;;;4.97;1.40;;;20.00;39.80;;;;;;5061810;27;87194;-57
2023/01/26 12:35:42;;;;;;;3.10;0.87;;;20.10;40.00;;;;;;5058820;27;87089;-56
2023/01/26 12:38:11;;;;;;;0.60;0.60;;;20.00;40.00;;;;;;5061109;27;88224;-54
2023/01/26 12:40:51;;;;;;;4.57;0.97;;;20.10;40.10;;;;;;5041208;27;87707;-53
2023/01/26 12:43:24;;;;;;;4.43;0.90;;;20.10;40.10;;;;;;5049353;27;87072;-53
2023/01/26 12:45:53;;;;;;;1.20;1.00;;;20.10;40.00;;;;;;5042622;28;86283;-54
2023/01/26 12:48:22;;;;;;;0.50;0.50;;;20.00;40.00;;;;;;5042316;27;89055;-53
2023/01/26 12:50:53;;;;;;;2.20;0.60;;;20.00;40.00;;;;;;5062108;27;88937;-54
2023/01/26 12:53:22;;;;;;;1.10;0.63;;;20.00;40.00;;;;;;5061898;27;87920;-56
2023/01/26 12:55:52;;;;;;;4.60;0.67;;;19.90;39.90;;;;;;5061877;27;86977;-53
2023/01/26 12:58:22;;;;;;;0.47;0.47;;;19.90;39.90;;;;;;5060430;27;88119;-56
2023/01/26 13:00:52;;;;;;;2.13;0.80;;;19.90;39.80;;;;;;5054455;27;88823;-54
2023/01/26 13:03:22;;;;;;;0.47;0.47;;;19.90;39.80;;;;;;5059544;27;88142;-53
2023/01/26 13:05:59;;;;;;;1.20;0.43;;;19.90;39.80;;;;;;5060984;27;87022;-53
2023/01/26 13:08:40;;;;;;;0.50;0.50;;;19.90;39.80;;;;;;5059261;27;89171;-53
2023/01/26 13:11:09;;;;;;;1.63;0.60;;;19.90;39.80;;;;;;5049670;27;87981;-53
2023/01/26 13:13:53;;;;;;;3.97;0.67;;;19.90;39.80;;;;;;5061775;27;87097;-53
2023/01/26 13:16:33;;;;;;;2.73;0.93;;;19.80;39.80;;;;;;5059334;27;88383;-53
2023/01/26 13:19:02;;;;;;;1.97;0.50;;;19.80;39.80;;;;;;5059291;27;89062;-53
2023/01/26 13:21:43;;;;;;;0.40;0.40;;;19.80;39.70;;;;;;5060589;27;89024;-52
2023/01/26 13:24:45;;;;;;;3.03;0.47;;;19.80;39.80;;;;;;5061052;27;87088;-53
2023/01/26 13:27:30;;;;;;;0.63;0.50;;;19.80;39.80;;;;;;5060838;27;86992;-52
2023/01/26 13:29:58;;;;;;;0.83;0.73;;;19.70;39.80;;;;;;5060779;27;89377;-56
2023/01/26 13:32:54;;;;;;;1.63;0.67;;;19.70;40.40;;;;;;5061323;27;88835;-53
2023/01/26 13:35:23;;;;;;;1.87;0.43;;;19.70;39.90;;;;;;5061130;27;87023;-53
2023/01/26 13:37:56;;;;;;;3.27;0.77;;;19.70;39.80;;;;;;5061657;27;86377;-55
2023/01/26 13:40:26;;;;;;;1.03;0.67;;;19.70;39.80;;;;;;5060586;27;88126;-54
2023/01/26 13:43:00;;;;;;;4.07;0.53;;;19.70;39.80;;;;;;5061206;27;88962;-55
2023/01/26 13:45:31;;;;;;;0.47;0.37;;;19.70;39.80;;;;;;5061294;27;87972;-55
2023/01/26 13:47:59;;;;;;;0.97;0.60;;;19.70;39.80;;;;;;5061269;27;88013;-55